createdAt,value
2022-08-19T00:04:35.223Z,36.56
2022-08-19T00:09:53.541Z,36.47
2022-08-19T00:14:46.466Z,36.62
2022-08-19T00:19:46.385Z,36.72
2022-08-19T00:24:49.589Z,36.62
2022-08-19T00:29:46.250Z,36.59
2022-08-19T00:34:47.203Z,36.53
2022-08-19T00:39:46.154Z,36.47
2022-08-19T00:44:46.107Z,36.50
2022-08-19T00:49:46.002Z,36.28
2022-08-19T00:54:47.838Z,36.50
2022-08-19T00:59:56.278Z,36.40
2022-08-19T01:04:46.842Z,36.44
2022-08-19T01:09:45.723Z,36.59
2022-08-19T01:14:45.651Z,36.44
2022-08-19T01:19:45.601Z,36.53
2022-08-19T01:24:49.757Z,36.47
2022-08-19T01:29:45.467Z,36.50
2022-08-19T01:34:45.420Z,36.59
2022-08-19T01:39:45.360Z,36.59
2022-08-19T01:44:45.254Z,36.78
2022-08-19T01:49:45.210Z,36.88
2022-08-19T01:54:45.168Z,36.98
2022-08-19T01:59:45.097Z,36.88
2022-08-19T02:04:45.014Z,37.04
2022-08-19T02:09:44.945Z,37.14
2022-08-19T02:14:45.396Z,37.31
2022-08-19T02:19:44.813Z,37.40
2022-08-19T02:24:44.770Z,37.40
2022-08-19T02:29:44.675Z,37.64
2022-08-19T02:34:44.617Z,37.54
2022-08-19T02:39:44.653Z,37.77
2022-08-19T02:44:44.498Z,37.71
2022-08-19T02:49:44.506Z,37.81
2022-08-19T02:54:44.391Z,37.98
2022-08-19T02:59:44.314Z,38.01
2022-08-19T03:04:44.213Z,38.08
2022-08-19T03:09:44.138Z,38.11
2022-08-19T03:14:44.071Z,38.18
2022-08-19T03:19:44.004Z,38.18
2022-08-19T03:24:43.941Z,38.35
2022-08-19T03:29:44.149Z,38.39
2022-08-19T03:34:43.821Z,38.53
2022-08-19T03:39:43.750Z,38.53
2022-08-19T03:44:43.678Z,38.60
2022-08-19T03:49:43.610Z,38.71
2022-08-19T03:54:43.535Z,38.78
2022-08-19T03:59:43.490Z,38.78
2022-08-19T04:04:43.416Z,38.60
2022-08-19T04:09:43.333Z,38.85
2022-08-19T04:14:43.276Z,38.88
2022-08-19T04:19:57.326Z,38.99
2022-08-19T04:24:50.229Z,39.21
2022-08-19T04:29:50.180Z,39.28
2022-08-19T04:35:01.570Z,39.47
2022-08-19T04:39:51.067Z,39.32
2022-08-19T04:44:49.974Z,39.43
2022-08-19T04:49:49.907Z,39.58
2022-08-19T04:54:49.914Z,39.39
2022-08-19T04:59:49.780Z,39.28
2022-08-19T05:04:49.719Z,39.21
2022-08-19T05:09:57.848Z,39.06
2022-08-19T05:14:50.594Z,38.78
2022-08-19T05:19:49.570Z,38.71
2022-08-19T05:25:11.320Z,38.29
2022-08-19T05:29:50.386Z,38.01
2022-08-19T05:34:49.293Z,37.50
2022-08-19T05:39:51.593Z,37.04
2022-08-19T05:44:49.242Z,36.69
2022-08-19T05:49:49.103Z,36.31
2022-08-19T05:54:51.282Z,35.97
2022-08-19T05:59:48.970Z,35.82
2022-08-19T06:04:48.936Z,35.76
2022-08-19T06:09:54.432Z,35.73
2022-08-19T06:14:55.971Z,35.55
2022-08-19T06:19:49.694Z,35.67
2022-08-19T06:24:48.673Z,35.37
2022-08-19T06:29:48.586Z,35.07
2022-08-19T06:34:48.518Z,34.53
2022-08-19T06:39:48.510Z,33.76
2022-08-19T06:44:49.114Z,32.26
2022-08-19T06:49:48.327Z,30.98
2022-08-19T06:54:56.606Z,29.59
2022-08-19T06:59:49.217Z,28.21
2022-08-19T07:04:48.132Z,26.90
2022-08-19T07:09:51.597Z,25.69
2022-08-19T07:14:49.031Z,24.77
2022-08-19T07:19:47.914Z,24.26
2022-08-19T07:24:51.354Z,23.95
2022-08-19T07:29:47.869Z,23.78
2022-08-19T07:34:48.722Z,23.41
2022-08-19T07:39:47.668Z,23.15
2022-08-19T07:44:50.146Z,22.90
2022-08-19T07:49:47.552Z,22.39
2022-08-19T07:54:47.454Z,22.25
2022-08-19T07:59:47.458Z,21.97
2022-08-19T08:04:47.327Z,21.66
2022-08-19T08:09:50.134Z,21.46
2022-08-19T08:14:47.271Z,21.14
2022-08-19T08:19:47.143Z,20.70
2022-08-19T08:24:47.076Z,20.52
2022-08-19T08:29:47.078Z,20.38
2022-08-19T08:34:47.388Z,20.28
2022-08-19T08:39:46.961Z,20.13
2022-08-19T08:44:46.925Z,20.07
2022-08-19T08:49:46.816Z,20.05
2022-08-19T08:54:49.013Z,19.96
2022-08-19T08:59:47.710Z,20.17
2022-08-19T09:04:46.564Z,20.11
2022-08-19T09:09:46.521Z,20.20
2022-08-19T09:14:50.768Z,20.26
2022-08-19T09:19:47.395Z,20.15
2022-08-19T09:24:46.293Z,19.81
2022-08-19T09:29:46.261Z,19.11
2022-08-19T09:34:50.806Z,18.47
2022-08-19T09:39:47.140Z,18.00
2022-08-19T09:44:46.043Z,18.14
2022-08-19T09:49:45.993Z,18.20
2022-08-19T09:54:45.924Z,18.70
2022-08-19T09:59:46.935Z,18.92
2022-08-19T10:04:45.778Z,19.12
2022-08-19T10:09:45.725Z,19.09
2022-08-19T10:14:45.655Z,18.70
2022-08-19T10:19:55.682Z,18.49
2022-08-19T10:24:46.548Z,18.25
2022-08-19T10:29:46.418Z,18.33
2022-08-19T10:34:48.931Z,18.75
2022-08-19T10:39:45.467Z,18.72
2022-08-19T10:44:45.297Z,19.05
2022-08-19T10:49:45.330Z,19.12
2022-08-19T10:54:45.190Z,18.80
2022-08-19T10:59:45.058Z,18.55
2022-08-19T11:04:45.060Z,18.52
2022-08-19T11:09:44.988Z,18.26
2022-08-19T11:14:44.869Z,18.34
2022-08-19T11:19:44.851Z,18.83
2022-08-19T11:24:44.772Z,18.63
2022-08-19T11:29:44.685Z,18.70
2022-08-19T11:34:44.648Z,18.65
2022-08-19T11:39:44.629Z,18.36
2022-08-19T11:44:45.513Z,18.31
2022-08-19T11:49:44.434Z,18.58
2022-08-19T11:54:44.415Z,18.99
2022-08-19T11:59:44.319Z,19.11
2022-08-19T12:04:44.420Z,19.02
2022-08-19T12:09:44.182Z,18.78
2022-08-19T12:14:44.544Z,18.58
2022-08-19T12:19:44.038Z,18.82
2022-08-19T12:24:44.107Z,19.28
2022-08-19T12:29:43.964Z,19.16
2022-08-19T12:34:43.855Z,19.23
2022-08-19T12:39:43.872Z,19.12
2022-08-19T12:44:43.797Z,19.35
2022-08-19T12:49:54.387Z,19.39
2022-08-19T12:54:44.630Z,19.35
2022-08-19T12:59:43.578Z,19.50
2022-08-19T13:04:43.508Z,19.60
2022-08-19T13:09:43.545Z,19.73
2022-08-19T13:14:43.387Z,19.73
2022-08-19T13:19:43.315Z,19.94
2022-08-19T13:24:47.245Z,20.07
2022-08-19T13:29:43.187Z,20.11
2022-08-19T13:34:43.138Z,20.28
2022-08-19T13:39:43.138Z,20.48
2022-08-19T13:44:43.094Z,20.64
2022-08-19T13:49:42.995Z,20.84
2022-08-19T13:54:42.894Z,21.22
2022-08-19T13:59:42.791Z,21.44
2022-08-19T14:04:42.749Z,21.52
2022-08-19T14:09:42.675Z,21.75
2022-08-19T14:14:43.103Z,21.84
2022-08-19T14:19:42.506Z,22.04
2022-08-19T14:24:48.017Z,22.37
2022-08-19T14:29:43.411Z,22.61
2022-08-19T14:34:42.333Z,22.80
2022-08-19T14:39:42.311Z,22.78
2022-08-19T14:44:42.202Z,22.98
2022-08-19T14:49:45.757Z,23.05
2022-08-19T14:54:43.104Z,23.33
2022-08-19T14:59:41.996Z,23.46
2022-08-19T15:04:41.949Z,23.84
2022-08-19T15:09:41.894Z,24.10
2022-08-19T15:14:41.806Z,24.26
2022-08-19T15:19:41.780Z,24.37
2022-08-19T15:24:47.952Z,24.31
2022-08-19T15:29:42.696Z,24.58
2022-08-19T15:34:41.578Z,24.62
2022-08-19T15:39:41.560Z,24.77
2022-08-19T15:44:41.437Z,25.02
2022-08-19T15:49:41.422Z,25.24
2022-08-19T15:54:41.323Z,25.53
2022-08-19T15:59:46.899Z,25.59
2022-08-19T16:04:42.191Z,25.73
2022-08-19T16:09:42.305Z,25.92
2022-08-19T16:14:42.460Z,26.02
2022-08-19T16:19:40.989Z,26.28
2022-08-19T16:24:40.902Z,26.38
2022-08-19T16:29:42.661Z,26.63
2022-08-19T16:34:40.796Z,27.00
2022-08-19T16:39:40.748Z,27.40
2022-08-19T16:44:40.708Z,27.44
2022-08-19T16:49:53.123Z,27.53
2022-08-19T16:54:41.627Z,27.87
2022-08-19T16:59:44.121Z,27.89
2022-08-19T17:04:41.497Z,28.04
2022-08-19T17:09:40.345Z,28.34
2022-08-19T17:14:43.949Z,28.32
2022-08-19T17:19:41.210Z,28.57
2022-08-19T17:24:40.549Z,28.67
2022-08-19T17:29:43.904Z,28.79
2022-08-19T17:34:41.240Z,28.90
2022-08-19T17:39:40.021Z,29.14
2022-08-19T17:44:39.900Z,29.14
2022-08-19T17:49:39.841Z,29.37
2022-08-19T17:54:39.893Z,29.45
2022-08-19T17:59:39.664Z,29.51
2022-08-19T18:04:39.625Z,29.72
2022-08-19T18:09:42.318Z,29.74
2022-08-19T18:14:39.481Z,30.38
2022-08-19T18:19:40.823Z,30.40
2022-08-19T18:24:39.364Z,30.71
2022-08-19T18:29:39.273Z,30.87
2022-08-19T18:34:39.290Z,31.03
2022-08-19T18:39:39.214Z,31.28
2022-08-19T18:44:40.260Z,31.40
2022-08-19T18:49:39.022Z,31.75
2022-08-19T18:54:38.985Z,31.87
2022-08-19T18:59:38.893Z,32.06
2022-08-19T19:04:38.843Z,32.26
2022-08-19T19:09:38.811Z,32.48
2022-08-19T19:14:49.181Z,32.63
2022-08-19T19:19:39.632Z,32.81
2022-08-19T19:24:38.762Z,33.02
2022-08-19T19:29:38.911Z,33.22
2022-08-19T19:34:38.452Z,33.25
2022-08-19T19:39:45.958Z,33.41
2022-08-19T19:44:39.330Z,33.65
2022-08-19T19:49:52.518Z,33.97
2022-08-19T19:54:39.245Z,33.95
2022-08-19T19:59:39.180Z,34.03
2022-08-19T20:04:39.044Z,34.03
2022-08-19T20:09:58.398Z,34.08
2022-08-19T20:14:38.964Z,34.19
2022-08-19T20:19:37.957Z,34.22
2022-08-19T20:24:37.796Z,34.03
2022-08-19T20:29:40.364Z,34.08
2022-08-19T20:34:38.680Z,34.08
2022-08-19T20:39:37.632Z,34.33
2022-08-19T20:44:37.552Z,34.33
2022-08-19T20:49:37.544Z,34.36
2022-08-19T20:54:37.377Z,34.39
2022-08-19T20:59:37.330Z,34.42
2022-08-19T21:04:37.251Z,34.70
2022-08-19T21:09:37.273Z,34.61
2022-08-19T21:14:37.140Z,34.67
2022-08-19T21:19:37.070Z,34.78
2022-08-19T21:24:37.117Z,34.73
2022-08-19T21:29:36.936Z,34.87
2022-08-19T21:34:36.863Z,34.96
2022-08-19T21:39:36.855Z,34.87
2022-08-19T21:44:37.639Z,34.81
2022-08-19T21:49:36.684Z,34.93
2022-08-19T21:54:37.911Z,34.96
2022-08-19T21:59:36.558Z,35.19
2022-08-19T22:04:36.490Z,34.99
2022-08-19T22:09:36.410Z,34.99
2022-08-19T22:14:36.360Z,34.96
2022-08-19T22:19:36.255Z,34.78
2022-08-19T22:24:36.448Z,34.93
2022-08-19T22:29:36.155Z,34.84
2022-08-19T22:34:36.153Z,34.61
2022-08-19T22:39:36.051Z,34.61
2022-08-19T22:44:36.104Z,34.76
2022-08-19T22:49:35.860Z,34.56
2022-08-19T22:54:35.873Z,34.50
2022-08-19T22:59:35.778Z,34.39
2022-08-19T23:04:35.710Z,34.50
2022-08-19T23:09:35.671Z,34.19
2022-08-19T23:14:35.697Z,34.28
2022-08-19T23:19:35.476Z,34.44
2022-08-19T23:24:35.440Z,34.36
2022-08-19T23:29:55.253Z,34.08
2022-08-19T23:34:47.625Z,34.25
2022-08-19T23:39:47.616Z,34.03
2022-08-19T23:44:51.291Z,34.14
2022-08-19T23:49:47.470Z,34.28
2022-08-19T23:54:47.370Z,34.06
2022-08-19T23:59:47.326Z,34.19
